Time;durP1;ratioP1;P1;durP2;ratioP2;P2;SDS_P1;SDS_P2;PMS_P1;PMS_P2;Temp;Humidity;BMP_temperature;BMP_pressure;BME280_temperature;BME280_humidity;BME280_pressure;Samples;Min_cycle;Max_cycle;Signal;HPM_P1;HPM_P2
2022/07/12 00:00:00;;;;;;;6.93;5.57;;;;;;;;;;4963295;28;20050;-65
2022/07/12 00:02:26;;;;;;;7.15;6.20;;;;;;;;;;4979358;28;20046;-65
2022/07/12 00:04:52;;;;;;;8.38;5.82;;;;;;;;;;4975031;28;20046;-65
2022/07/12 00:07:19;;;;;;;8.32;6.18;;;;;;;;;;4976014;28;20528;-65
2022/07/12 00:09:45;;;;;;;8.10;5.72;;;;;;;;;;4970558;28;20086;-65
2022/07/12 00:12:11;;;;;;;7.57;5.70;;;;;;;;;;4974497;28;20039;-65
2022/07/12 00:14:37;;;;;;;8.23;6.38;;;;;;;;;;4973944;28;20046;-65
2022/07/12 00:17:04;;;;;;;8.10;5.97;;;;;;;;;;4977562;28;20047;-65
2022/07/12 00:19:30;;;;;;;8.55;6.53;;;;;;;;;;4972286;28;20054;-65
2022/07/12 00:21:57;;;;;;;11.70;6.72;;;;;;;;;;4975532;28;20049;-65
2022/07/12 00:24:24;;;;;;;8.70;7.07;;;;;;;;;;4970077;28;20382;-65
2022/07/12 00:26:50;;;;;;;10.45;7.75;;;;;;;;;;4973298;28;20061;-65
2022/07/12 00:29:17;;;;;;;11.32;8.10;;;;;;;;;;4976571;28;20114;-66
2022/07/12 00:31:43;;;;;;;10.85;7.30;;;;;;;;;;4977338;28;20215;-65
2022/07/12 00:34:09;;;;;;;10.43;8.82;;;;;;;;;;4965642;28;20049;-65
2022/07/12 00:36:35;;;;;;;10.02;8.18;;;;;;;;;;4978513;28;20512;-64
2022/07/12 00:39:01;;;;;;;9.80;8.80;;;;;;;;;;4974573;28;20434;-65
2022/07/12 00:41:28;;;;;;;10.85;8.73;;;;;;;;;;4970970;28;20039;-65
2022/07/12 00:43:54;;;;;;;10.98;9.77;;;;;;;;;;4968984;28;20047;-65
2022/07/12 00:46:22;;;;;;;13.13;9.48;;;;;;;;;;4971563;28;20161;-65
2022/07/12 00:48:48;;;;;;;9.90;8.15;;;;;;;;;;4962618;28;20065;-65
2022/07/12 00:51:15;;;;;;;12.35;8.70;;;;;;;;;;4977596;28;20046;-65
2022/07/12 00:53:41;;;;;;;11.23;9.77;;;;;;;;;;4969768;28;20137;-65
2022/07/12 00:56:07;;;;;;;12.00;10.20;;;;;;;;;;4966200;28;20110;-65
2022/07/12 00:58:33;;;;;;;14.88;10.18;;;;;;;;;;4978041;28;20050;-64
2022/07/12 01:01:00;;;;;;;16.27;10.70;;;;;;;;;;4974940;28;20095;-65
2022/07/12 01:03:27;;;;;;;15.38;11.00;;;;;;;;;;4975822;28;20043;-65
2022/07/12 01:05:54;;;;;;;13.20;9.98;;;;;;;;;;4971333;28;20497;-65
2022/07/12 01:08:20;;;;;;;12.10;9.63;;;;;;;;;;4970350;28;20478;-65
2022/07/12 01:10:47;;;;;;;15.48;10.60;;;;;;;;;;4972019;28;20054;-65
2022/07/12 01:13:13;;;;;;;16.15;11.38;;;;;;;;;;4978628;28;20061;-65
2022/07/12 01:15:40;;;;;;;16.38;13.23;;;;;;;;;;4975254;28;20444;-65
2022/07/12 01:18:06;;;;;;;16.63;12.48;;;;;;;;;;4976904;28;20094;-65
2022/07/12 01:20:33;;;;;;;17.23;12.77;;;;;;;;;;4976787;28;20054;-65
2022/07/12 01:22:59;;;;;;;51.78;13.80;;;;;;;;;;4976792;28;20050;-65
2022/07/12 01:25:26;;;;;;;57.95;14.70;;;;;;;;;;4976375;28;20046;-65
2022/07/12 01:27:52;;;;;;;41.88;13.82;;;;;;;;;;4977570;28;20053;-65
2022/07/12 01:30:19;;;;;;;28.33;13.02;;;;;;;;;;4977292;28;20046;-65
2022/07/12 01:32:45;;;;;;;39.78;14.65;;;;;;;;;;4967506;28;20042;-65
2022/07/12 01:35:11;;;;;;;56.70;15.85;;;;;;;;;;4960010;28;20050;-65
2022/07/12 01:37:39;;;;;;;20.55;14.48;;;;;;;;;;4966584;28;20063;-65
2022/07/12 01:40:06;;;;;;;19.30;14.50;;;;;;;;;;4976988;28;20057;-65
2022/07/12 01:42:32;;;;;;;20.05;14.70;;;;;;;;;;4975754;28;20232;-65
2022/07/12 01:44:59;;;;;;;34.88;13.88;;;;;;;;;;4979527;28;20051;-65
2022/07/12 01:47:26;;;;;;;23.92;14.93;;;;;;;;;;4978852;28;20501;-65
2022/07/12 01:49:52;;;;;;;23.55;13.43;;;;;;;;;;4977871;28;21352;-65
2022/07/12 01:52:19;;;;;;;67.72;15.02;;;;;;;;;;4978962;28;20034;-65
2022/07/12 01:54:46;;;;;;;55.38;16.15;;;;;;;;;;4975966;28;20136;-65
2022/07/12 01:57:12;;;;;;;65.20;22.33;;;;;;;;;;4980553;28;20045;-65
2022/07/12 01:59:39;;;;;;;67.28;25.92;;;;;;;;;;4978190;28;20085;-65
2022/07/12 02:02:05;;;;;;;76.43;27.75;;;;;;;;;;4976263;28;20130;-65
2022/07/12 02:04:31;;;;;;;49.78;22.13;;;;;;;;;;4973211;28;20194;-65
2022/07/12 02:06:58;;;;;;;72.43;24.95;;;;;;;;;;4972549;28;21856;-65
2022/07/12 02:09:24;;;;;;;62.83;25.95;;;;;;;;;;4971231;28;20054;-65
2022/07/12 02:11:50;;;;;;;47.80;25.83;;;;;;;;;;4969191;28;20049;-65
2022/07/12 02:14:17;;;;;;;44.15;22.00;;;;;;;;;;4971601;28;20051;-65
2022/07/12 02:16:43;;;;;;;104.25;20.38;;;;;;;;;;4970579;28;20050;-65
2022/07/12 02:19:10;;;;;;;78.63;17.52;;;;;;;;;;4974716;28;20077;-65
2022/07/12 02:21:37;;;;;;;32.38;16.85;;;;;;;;;;4971646;28;20058;-65
2022/07/12 02:24:03;;;;;;;72.32;16.90;;;;;;;;;;4975770;28;20058;-65
2022/07/12 02:26:29;;;;;;;38.80;16.70;;;;;;;;;;4975422;28;20086;-65
2022/07/12 02:28:56;;;;;;;52.45;14.75;;;;;;;;;;4967552;28;20176;-65
2022/07/12 02:31:22;;;;;;;77.40;14.63;;;;;;;;;;4972864;28;20046;-65
2022/07/12 02:33:48;;;;;;;105.82;15.10;;;;;;;;;;4973606;28;20181;-65
2022/07/12 02:36:14;;;;;;;87.53;14.57;;;;;;;;;;4964260;28;20593;-65
2022/07/12 02:38:40;;;;;;;41.00;12.27;;;;;;;;;;4971391;28;20385;-64
2022/07/12 02:41:06;;;;;;;46.72;13.02;;;;;;;;;;4971976;28;20042;-65
2022/07/12 02:43:34;;;;;;;28.20;11.55;;;;;;;;;;4972644;28;20059;-65
2022/07/12 02:46:07;;;;;;;33.35;11.90;;;;;;;;;;4971578;28;20396;-65
2022/07/12 02:48:33;;;;;;;37.20;13.20;;;;;;;;;;4970826;28;20062;-65
2022/07/12 02:51:00;;;;;;;40.33;11.27;;;;;;;;;;4970894;28;20045;-65
2022/07/12 02:53:26;;;;;;;21.52;10.93;;;;;;;;;;4976956;28;20434;-65
2022/07/12 02:55:53;;;;;;;18.67;9.75;;;;;;;;;;4976957;28;20046;-65
2022/07/12 02:58:19;;;;;;;27.92;9.35;;;;;;;;;;4974173;28;20054;-65
2022/07/12 03:00:45;;;;;;;38.00;9.90;;;;;;;;;;4980074;28;20490;-65
2022/07/12 03:03:12;;;;;;;35.58;9.10;;;;;;;;;;4977467;28;20042;-65
2022/07/12 03:05:39;;;;;;;43.47;8.85;;;;;;;;;;4972710;28;20053;-65
2022/07/12 03:08:05;;;;;;;39.38;10.10;;;;;;;;;;4974843;28;20383;-65
2022/07/12 03:10:31;;;;;;;58.70;9.35;;;;;;;;;;4974046;28;20595;-65
2022/07/12 03:12:57;;;;;;;59.33;9.45;;;;;;;;;;4976851;28;20042;-65
2022/07/12 03:15:24;;;;;;;37.55;8.50;;;;;;;;;;4977967;28;20094;-65
2022/07/12 03:17:50;;;;;;;48.88;8.77;;;;;;;;;;4974929;28;20046;-65
2022/07/12 03:20:16;;;;;;;32.05;8.07;;;;;;;;;;4974666;28;20461;-65
2022/07/12 03:22:46;;;;;;;50.25;8.35;;;;;;;;;;4974867;28;20056;-65
2022/07/12 03:25:12;;;;;;;39.63;8.95;;;;;;;;;;4974481;28;20050;-65
2022/07/12 03:27:39;;;;;;;84.55;9.48;;;;;;;;;;4974558;28;20555;-65
2022/07/12 03:30:06;;;;;;;43.58;8.45;;;;;;;;;;4973471;28;20141;-65
2022/07/12 03:32:32;;;;;;;40.17;7.47;;;;;;;;;;4972640;28;20471;-65
2022/07/12 03:34:58;;;;;;;58.85;8.48;;;;;;;;;;4969860;28;20414;-65
2022/07/12 03:37:25;;;;;;;28.60;7.75;;;;;;;;;;4962955;28;20177;-65
2022/07/12 03:39:51;;;;;;;25.13;7.70;;;;;;;;;;4965571;28;20061;-65
2022/07/12 03:42:17;;;;;;;21.38;7.15;;;;;;;;;;4976432;28;20421;-65
2022/07/12 03:44:43;;;;;;;24.92;6.63;;;;;;;;;;4976837;28;20054;-65
2022/07/12 03:47:09;;;;;;;31.40;7.25;;;;;;;;;;4974790;28;20054;-65
2022/07/12 03:49:35;;;;;;;31.45;6.95;;;;;;;;;;4974458;28;20054;-65
2022/07/12 03:52:02;;;;;;;19.10;7.50;;;;;;;;;;4976655;28;20135;-65
2022/07/12 03:54:29;;;;;;;23.65;7.45;;;;;;;;;;4974217;28;20150;-65
2022/07/12 03:57:13;;;;;;;20.02;7.60;;;;;;;;;;4973040;28;20091;-65
2022/07/12 03:59:40;;;;;;;16.38;6.45;;;;;;;;;;4973674;28;20444;-65
2022/07/12 04:02:06;;;;;;;20.58;5.97;;;;;;;;;;4976415;28;20117;-65
2022/07/12 04:04:32;;;;;;;21.55;5.88;;;;;;;;;;4971290;28;20397;-65
2022/07/12 04:06:59;;;;;;;16.33;6.45;;;;;;;;;;4973146;28;20159;-65
2022/07/12 04:09:25;;;;;;;21.38;7.07;;;;;;;;;;4977020;28;20069;-65
2022/07/12 04:11:51;;;;;;;15.05;6.75;;;;;;;;;;4972528;28;20038;-65
2022/07/12 04:14:17;;;;;;;16.00;6.57;;;;;;;;;;4980222;28;20504;-65
2022/07/12 04:16:44;;;;;;;18.70;6.35;;;;;;;;;;4975557;28;20045;-65
2022/07/12 04:19:10;;;;;;;14.05;6.45;;;;;;;;;;4957015;28;20051;-65
2022/07/12 04:21:37;;;;;;;19.35;6.93;;;;;;;;;;4959452;28;20107;-65
2022/07/12 04:24:03;;;;;;;38.13;7.38;;;;;;;;;;4957560;28;20431;-65
2022/07/12 04:26:29;;;;;;;36.05;7.63;;;;;;;;;;4949983;28;20047;-65
2022/07/12 04:28:55;;;;;;;27.45;6.65;;;;;;;;;;4954872;28;20046;-65
2022/07/12 04:31:22;;;;;;;21.40;6.40;;;;;;;;;;4955185;28;20079;-65
2022/07/12 04:33:48;;;;;;;24.98;6.75;;;;;;;;;;4953444;28;20050;-65
2022/07/12 04:36:14;;;;;;;41.80;6.38;;;;;;;;;;4951733;28;20398;-65
2022/07/12 04:38:40;;;;;;;19.98;7.05;;;;;;;;;;4952387;28;20085;-65
2022/07/12 04:41:06;;;;;;;16.58;6.40;;;;;;;;;;4953880;28;20126;-65
2022/07/12 04:43:32;;;;;;;11.68;6.97;;;;;;;;;;4956654;28;20047;-65
2022/07/12 04:46:17;;;;;;;16.17;6.65;;;;;;;;;;4957295;28;20075;-64
2022/07/12 04:48:43;;;;;;;9.50;6.25;;;;;;;;;;4959946;28;20537;-66
2022/07/12 04:51:10;;;;;;;9.88;6.15;;;;;;;;;;4954334;28;20046;-65
2022/07/12 04:53:36;;;;;;;12.45;6.07;;;;;;;;;;4951671;28;20057;-65
2022/07/12 04:56:02;;;;;;;8.98;5.43;;;;;;;;;;4951756;28;20111;-65
2022/07/12 04:58:28;;;;;;;7.35;5.63;;;;;;;;;;4952285;28;20510;-65
2022/07/12 05:00:54;;;;;;;8.75;5.75;;;;;;;;;;4950300;28;20051;-65
2022/07/12 05:03:21;;;;;;;8.20;5.80;;;;;;;;;;4951559;28;20047;-65
2022/07/12 05:05:47;;;;;;;8.13;5.30;;;;;;;;;;4971013;28;20046;-65
2022/07/12 05:08:13;;;;;;;8.43;5.82;;;;;;;;;;4950523;28;20548;-65
2022/07/12 05:10:39;;;;;;;10.32;5.95;;;;;;;;;;4948438;28;20042;-65
2022/07/12 05:13:05;;;;;;;7.63;5.85;;;;;;;;;;4952045;28;20350;-65
2022/07/12 05:15:31;;;;;;;7.53;5.53;;;;;;;;;;4955324;28;20058;-65
2022/07/12 05:17:58;;;;;;;8.20;6.15;;;;;;;;;;4951404;28;20114;-65
2022/07/12 05:20:24;;;;;;;7.93;5.53;;;;;;;;;;4973403;28;20789;-65
2022/07/12 05:22:50;;;;;;;8.05;5.72;;;;;;;;;;4976128;28;20593;-65
2022/07/12 05:25:16;;;;;;;8.00;5.90;;;;;;;;;;4980877;28;20500;-65
2022/07/12 05:27:43;;;;;;;8.50;6.10;;;;;;;;;;4982084;28;20164;-66
2022/07/12 05:30:09;;;;;;;7.15;5.72;;;;;;;;;;4977427;28;20038;-65
2022/07/12 05:32:36;;;;;;;8.77;6.35;;;;;;;;;;4963458;28;20046;-65
2022/07/12 05:35:02;;;;;;;7.95;5.65;;;;;;;;;;4973619;28;20371;-65
2022/07/12 05:37:28;;;;;;;8.30;6.00;;;;;;;;;;4961596;28;20138;-65
2022/07/12 05:39:54;;;;;;;9.13;5.70;;;;;;;;;;4968374;28;20125;-65
2022/07/12 05:42:21;;;;;;;7.57;6.22;;;;;;;;;;4973614;28;20035;-64
2022/07/12 05:44:47;;;;;;;9.20;6.28;;;;;;;;;;4970353;28;20050;-65
2022/07/12 05:47:13;;;;;;;7.97;5.85;;;;;;;;;;4979366;28;20482;-65
2022/07/12 05:49:39;;;;;;;9.63;6.15;;;;;;;;;;4976165;28;20149;-65
2022/07/12 05:54:52;;;;;;;7.65;5.38;;;;;;;;;;4977947;28;20042;-65
2022/07/12 05:57:19;;;;;;;8.23;5.78;;;;;;;;;;4977466;28;20050;-65
2022/07/12 05:59:45;;;;;;;10.07;5.45;;;;;;;;;;4981881;28;20053;-65
2022/07/12 06:02:11;;;;;;;10.00;5.63;;;;;;;;;;4983251;28;20052;-64
2022/07/12 06:04:38;;;;;;;9.88;5.82;;;;;;;;;;4983755;28;20517;-65
2022/07/12 06:07:04;;;;;;;9.05;5.35;;;;;;;;;;4976752;28;20130;-65
2022/07/12 06:09:31;;;;;;;6.70;5.18;;;;;;;;;;4998126;28;20050;-65
2022/07/12 06:11:57;;;;;;;8.48;5.22;;;;;;;;;;4988103;28;20509;-65
2022/07/12 06:14:23;;;;;;;9.65;5.47;;;;;;;;;;4970563;28;20091;-65
2022/07/12 06:16:49;;;;;;;7.15;5.55;;;;;;;;;;4989617;28;20038;-64
2022/07/12 06:19:15;;;;;;;6.93;5.35;;;;;;;;;;4987826;28;20058;-65
2022/07/12 06:21:42;;;;;;;9.00;5.85;;;;;;;;;;4988812;28;20050;-65
2022/07/12 06:24:08;;;;;;;8.48;5.07;;;;;;;;;;4986453;28;20498;-64
2022/07/12 06:26:34;;;;;;;7.20;4.75;;;;;;;;;;4991422;28;20133;-65
2022/07/12 06:29:00;;;;;;;7.82;4.63;;;;;;;;;;4990730;28;20037;-64
2022/07/12 06:31:26;;;;;;;6.20;4.97;;;;;;;;;;5000523;28;20171;-65
2022/07/12 06:33:53;;;;;;;7.63;4.15;;;;;;;;;;4958819;28;20051;-65
2022/07/12 06:36:19;;;;;;;6.32;4.63;;;;;;;;;;4980059;28;20046;-65
2022/07/12 06:38:45;;;;;;;5.43;4.47;;;;;;;;;;4983619;28;20070;-65
2022/07/12 06:41:11;;;;;;;6.88;4.05;;;;;;;;;;4985903;28;20046;-65
2022/07/12 06:43:37;;;;;;;7.03;5.00;;;;;;;;;;4984722;28;20065;-65
2022/07/12 06:46:04;;;;;;;5.68;4.60;;;;;;;;;;4990060;28;20045;-65
2022/07/12 06:48:30;;;;;;;5.65;4.40;;;;;;;;;;4995780;28;20403;-65
2022/07/12 06:50:56;;;;;;;7.05;5.00;;;;;;;;;;4992162;28;20054;-65
2022/07/12 06:53:22;;;;;;;6.40;4.68;;;;;;;;;;4988284;28;20050;-65
2022/07/12 06:55:48;;;;;;;5.30;4.45;;;;;;;;;;4988473;28;20055;-65
2022/07/12 06:58:14;;;;;;;7.25;4.38;;;;;;;;;;4985695;28;20070;-65
2022/07/12 07:00:41;;;;;;;6.38;4.63;;;;;;;;;;4984599;28;20038;-65
2022/07/12 07:03:08;;;;;;;6.72;5.10;;;;;;;;;;4984881;28;20401;-65
2022/07/12 07:05:36;;;;;;;5.72;4.68;;;;;;;;;;4989157;28;20426;-65
2022/07/12 07:08:02;;;;;;;6.40;4.93;;;;;;;;;;4987264;28;20049;-65
2022/07/12 07:10:29;;;;;;;8.23;5.30;;;;;;;;;;4985941;28;20038;-65
2022/07/12 07:12:55;;;;;;;6.30;4.70;;;;;;;;;;4987766;28;20157;-65
2022/07/12 07:15:21;;;;;;;8.43;4.82;;;;;;;;;;4987846;28;20485;-65
2022/07/12 07:17:47;;;;;;;6.82;5.03;;;;;;;;;;4984628;28;20134;-65
2022/07/12 07:20:13;;;;;;;6.57;5.30;;;;;;;;;;4960866;28;20508;-65
2022/07/12 07:22:40;;;;;;;5.82;4.25;;;;;;;;;;4964661;28;20108;-64
2022/07/12 07:25:06;;;;;;;5.57;4.47;;;;;;;;;;4959717;28;20100;-65
2022/07/12 07:27:32;;;;;;;7.18;5.10;;;;;;;;;;4961102;28;20060;-65
2022/07/12 07:32:44;;;;;;;6.85;4.80;;;;;;;;;;4965907;28;20104;-65
2022/07/12 07:35:11;;;;;;;6.85;5.30;;;;;;;;;;4963768;28;22286;-65
2022/07/12 07:37:37;;;;;;;8.45;5.47;;;;;;;;;;4963386;28;20542;-65
2022/07/12 07:40:03;;;;;;;6.63;4.82;;;;;;;;;;4972986;28;20398;-65
2022/07/12 07:42:30;;;;;;;6.05;4.57;;;;;;;;;;4975525;28;20444;-65
2022/07/12 07:44:56;;;;;;;6.65;4.85;;;;;;;;;;4971634;28;20470;-65
2022/07/12 07:47:22;;;;;;;6.15;4.95;;;;;;;;;;4972419;28;20034;-65
2022/07/12 07:49:48;;;;;;;5.88;5.28;;;;;;;;;;4969926;28;20065;-65
2022/07/12 07:52:14;;;;;;;7.28;5.07;;;;;;;;;;4966622;28;20173;-65
2022/07/12 07:54:40;;;;;;;6.30;4.97;;;;;;;;;;4971421;28;20546;-65
2022/07/12 07:57:06;;;;;;;7.97;5.57;;;;;;;;;;4972153;28;20112;-65
2022/07/12 07:59:33;;;;;;;6.72;5.45;;;;;;;;;;4971363;28;20049;-65
2022/07/12 08:01:59;;;;;;;6.75;6.05;;;;;;;;;;4964342;28;20065;-65
2022/07/12 08:04:25;;;;;;;5.90;5.13;;;;;;;;;;4964993;28;20170;-65
2022/07/12 08:06:51;;;;;;;7.60;5.38;;;;;;;;;;4949870;28;20065;-65
2022/07/12 08:09:17;;;;;;;6.40;5.10;;;;;;;;;;4964651;28;20062;-65
2022/07/12 08:11:44;;;;;;;7.60;5.43;;;;;;;;;;4968950;28;20034;-65
2022/07/12 08:14:10;;;;;;;6.38;5.15;;;;;;;;;;4965793;28;20132;-66
2022/07/12 08:16:37;;;;;;;6.43;5.63;;;;;;;;;;4961386;28;20108;-65
2022/07/12 08:19:04;;;;;;;6.10;4.85;;;;;;;;;;4964018;28;20050;-65
2022/07/12 08:21:30;;;;;;;6.40;5.65;;;;;;;;;;4982993;28;20170;-65
2022/07/12 08:23:57;;;;;;;7.47;5.05;;;;;;;;;;4984215;28;20042;-64
2022/07/12 08:26:23;;;;;;;7.13;5.15;;;;;;;;;;4982464;28;20544;-65
2022/07/12 08:28:49;;;;;;;6.50;5.28;;;;;;;;;;4983039;28;20594;-65
2022/07/12 08:31:15;;;;;;;6.05;5.22;;;;;;;;;;4984818;28;20057;-65
2022/07/12 08:33:42;;;;;;;6.57;4.93;;;;;;;;;;4974679;28;20167;-65
2022/07/12 08:36:08;;;;;;;6.88;4.88;;;;;;;;;;4981327;28;20431;-65
2022/07/12 08:38:36;;;;;;;6.50;4.85;;;;;;;;;;4984848;28;20137;-65
2022/07/12 08:41:03;;;;;;;5.55;4.60;;;;;;;;;;4987226;28;20043;-65
2022/07/12 08:43:30;;;;;;;6.00;5.22;;;;;;;;;;4983535;28;20074;-65
2022/07/12 08:45:56;;;;;;;9.02;5.15;;;;;;;;;;4986702;28;20096;-65
2022/07/12 08:48:22;;;;;;;8.40;5.05;;;;;;;;;;4982401;28;20430;-65
2022/07/12 08:51:01;;;;;;;5.18;4.32;;;;;;;;;;5009371;28;20058;-65
2022/07/12 08:53:27;;;;;;;7.00;4.18;;;;;;;;;;4984660;28;21777;-65
2022/07/12 08:55:53;;;;;;;5.43;4.30;;;;;;;;;;4982230;28;20043;-65
2022/07/12 08:58:19;;;;;;;5.85;4.80;;;;;;;;;;5047292;28;20046;-65
2022/07/12 09:00:45;;;;;;;6.00;4.28;;;;;;;;;;4983789;28;20402;-65
2022/07/12 09:03:14;;;;;;;6.10;4.90;;;;;;;;;;4979521;28;20073;-65
2022/07/12 09:05:47;;;;;;;9.10;4.72;;;;;;;;;;4978043;28;20455;-64
2022/07/12 09:08:13;;;;;;;6.53;4.68;;;;;;;;;;4979925;28;20072;-65
2022/07/12 09:10:49;;;;;;;8.70;5.32;;;;;;;;;;4983167;28;20134;-65
2022/07/12 09:13:15;;;;;;;7.72;4.57;;;;;;;;;;4981475;28;20164;-65
2022/07/12 09:15:42;;;;;;;6.25;4.95;;;;;;;;;;4970451;28;20839;-65
2022/07/12 09:18:13;;;;;;;7.25;5.30;;;;;;;;;;4983445;28;20046;-65
2022/07/12 09:20:40;;;;;;;9.68;4.97;;;;;;;;;;4983309;28;20203;-65
2022/07/12 09:23:09;;;;;;;7.93;5.35;;;;;;;;;;4983008;28;20099;-65
2022/07/12 09:25:35;;;;;;;7.82;6.05;;;;;;;;;;4973231;28;20059;-65
2022/07/12 09:28:08;;;;;;;8.23;5.95;;;;;;;;;;4964573;28;20129;-65
2022/07/12 09:30:37;;;;;;;7.97;5.43;;;;;;;;;;4962510;28;20107;-65
2022/07/12 09:36:06;;;;;;;6.93;5.47;;;;;;;;;;4977664;28;20070;-65
2022/07/12 09:38:33;;;;;;;8.32;6.10;;;;;;;;;;4981059;28;20071;-65
2022/07/12 09:41:00;;;;;;;8.30;6.68;;;;;;;;;;4980167;28;20048;-65
2022/07/12 09:43:27;;;;;;;10.15;6.43;;;;;;;;;;4980980;28;20042;-65
2022/07/12 09:45:53;;;;;;;6.90;5.78;;;;;;;;;;4986639;28;20323;-66
2022/07/12 09:48:20;;;;;;;9.73;6.00;;;;;;;;;;4983151;28;20126;-65
2022/07/12 09:50:48;;;;;;;15.48;6.47;;;;;;;;;;4984404;28;20690;-65
2022/07/12 09:53:17;;;;;;;10.82;7.00;;;;;;;;;;4972933;28;20462;-65
2022/07/12 09:55:44;;;;;;;9.35;6.57;;;;;;;;;;4980887;28;20065;-66
2022/07/12 09:58:12;;;;;;;9.70;6.30;;;;;;;;;;5006736;28;20540;-65
2022/07/12 10:00:39;;;;;;;7.55;6.03;;;;;;;;;;4986387;28;20457;-65
2022/07/12 10:03:06;;;;;;;6.78;5.22;;;;;;;;;;4986478;28;20124;-65
2022/07/12 10:05:34;;;;;;;11.05;5.55;;;;;;;;;;4988180;28;20086;-65
2022/07/12 10:08:01;;;;;;;6.93;5.95;;;;;;;;;;4988982;28;20117;-65
2022/07/12 10:10:28;;;;;;;9.05;7.32;;;;;;;;;;4985376;28;20051;-65
2022/07/12 10:12:54;;;;;;;7.82;6.65;;;;;;;;;;4979764;28;20100;-65
2022/07/12 10:15:23;;;;;;;9.85;7.20;;;;;;;;;;4983455;28;20121;-65
2022/07/12 10:17:58;;;;;;;7.03;5.20;;;;;;;;;;4980680;28;20414;-65
2022/07/12 10:20:26;;;;;;;7.47;5.22;;;;;;;;;;4983300;28;20535;-65
2022/07/12 10:22:54;;;;;;;8.70;5.40;;;;;;;;;;4987413;28;21005;-65
2022/07/12 10:25:26;;;;;;;8.65;6.00;;;;;;;;;;4981393;28;20034;-65
2022/07/12 10:27:52;;;;;;;7.25;6.53;;;;;;;;;;4984049;28;20042;-65
2022/07/12 10:30:20;;;;;;;5.97;5.38;;;;;;;;;;5002575;28;20046;-65
2022/07/12 10:32:48;;;;;;;11.00;5.15;;;;;;;;;;4984699;28;20121;-65
2022/07/12 10:35:15;;;;;;;8.10;4.88;;;;;;;;;;4984548;28;20125;-65
2022/07/12 10:37:41;;;;;;;8.25;5.53;;;;;;;;;;4987914;28;20050;-65
2022/07/12 10:40:11;;;;;;;7.50;4.90;;;;;;;;;;4980997;28;20038;-66
2022/07/12 10:42:38;;;;;;;5.82;4.45;;;;;;;;;;4981049;28;20055;-66
2022/07/12 10:45:13;;;;;;;7.28;4.07;;;;;;;;;;4986724;28;20040;-65
2022/07/12 10:47:55;;;;;;;5.55;3.75;;;;;;;;;;4964398;28;20051;-65
2022/07/12 10:50:43;;;;;;;5.72;4.00;;;;;;;;;;4986621;28;20121;-65
2022/07/12 10:53:20;;;;;;;8.15;3.53;;;;;;;;;;4974041;28;20176;-65
2022/07/12 10:56:06;;;;;;;14.38;3.65;;;;;;;;;;4982010;28;20087;-65
2022/07/12 10:58:33;;;;;;;7.03;4.60;;;;;;;;;;4983988;28;20062;-65
2022/07/12 11:01:01;;;;;;;6.93;3.92;;;;;;;;;;4981943;28;20075;-65
2022/07/12 11:03:46;;;;;;;5.32;3.83;;;;;;;;;;4984349;28;20051;-65
2022/07/12 11:06:14;;;;;;;11.45;4.10;;;;;;;;;;4982177;28;20042;-65
2022/07/12 11:08:48;;;;;;;6.38;4.22;;;;;;;;;;4982760;28;20190;-65
2022/07/12 11:11:14;;;;;;;6.97;4.07;;;;;;;;;;4983336;28;20130;-65
2022/07/12 11:13:40;;;;;;;6.45;4.63;;;;;;;;;;4985216;28;20038;-66
2022/07/12 11:16:06;;;;;;;4.90;3.70;;;;;;;;;;4984729;28;20543;-65
2022/07/12 11:18:34;;;;;;;7.35;4.30;;;;;;;;;;4986267;28;20043;-66
2022/07/12 11:21:01;;;;;;;6.45;4.10;;;;;;;;;;4996634;28;20057;-66
2022/07/12 11:23:28;;;;;;;7.63;3.53;;;;;;;;;;4987218;28;20161;-65
2022/07/12 11:25:55;;;;;;;6.00;4.05;;;;;;;;;;4987944;28;20050;-65
2022/07/12 11:28:24;;;;;;;6.32;3.97;;;;;;;;;;4987875;28;20519;-65
2022/07/12 11:30:51;;;;;;;6.38;3.60;;;;;;;;;;4989618;28;20053;-65
2022/07/12 11:33:18;;;;;;;5.97;4.28;;;;;;;;;;4988697;28;20375;-65
2022/07/12 11:35:46;;;;;;;5.07;3.90;;;;;;;;;;4983343;28;20099;-65
2022/07/12 11:38:12;;;;;;;5.75;4.05;;;;;;;;;;4986885;28;20066;-66
2022/07/12 11:40:38;;;;;;;6.55;3.65;;;;;;;;;;4986880;28;20146;-65
2022/07/12 11:43:05;;;;;;;6.07;3.25;;;;;;;;;;4969930;28;20064;-65
2022/07/12 11:45:32;;;;;;;5.80;3.72;;;;;;;;;;4968967;28;20052;-65
2022/07/12 11:48:01;;;;;;;7.45;3.70;;;;;;;;;;4988693;28;20033;-65
2022/07/12 11:50:27;;;;;;;4.38;3.10;;;;;;;;;;4990613;28;20049;-65
2022/07/12 11:52:53;;;;;;;5.20;3.17;;;;;;;;;;4986335;28;20050;-66
2022/07/12 11:55:20;;;;;;;4.63;2.78;;;;;;;;;;4987376;28;20041;-66
2022/07/12 11:57:46;;;;;;;4.38;2.75;;;;;;;;;;4986555;28;20092;-66
2022/07/12 12:00:14;;;;;;;5.22;2.45;;;;;;;;;;4986582;28;20065;-66
2022/07/12 12:02:41;;;;;;;8.48;3.10;;;;;;;;;;4986837;28;20059;-63
2022/07/12 12:05:07;;;;;;;3.13;1.83;;;;;;;;;;4985475;28;20050;-63
2022/07/12 12:07:33;;;;;;;5.80;2.55;;;;;;;;;;4989851;28;20039;-63
2022/07/12 12:10:14;;;;;;;3.63;2.33;;;;;;;;;;4985525;28;20050;-63
2022/07/12 12:12:46;;;;;;;6.88;2.00;;;;;;;;;;4986755;28;20436;-63
2022/07/12 12:15:14;;;;;;;3.88;1.75;;;;;;;;;;4986273;28;20050;-63
2022/07/12 12:17:45;;;;;;;4.35;2.08;;;;;;;;;;5054257;28;20121;-63
2022/07/12 12:20:13;;;;;;;5.88;1.98;;;;;;;;;;4967912;28;20581;-63
2022/07/12 12:22:39;;;;;;;3.15;1.90;;;;;;;;;;4969458;28;20042;-63
2022/07/12 12:25:12;;;;;;;5.00;2.40;;;;;;;;;;4985016;28;20035;-63
2022/07/12 12:27:57;;;;;;;4.00;2.20;;;;;;;;;;4985262;28;20129;-63
2022/07/12 12:30:24;;;;;;;2.95;1.55;;;;;;;;;;4985180;28;20073;-63
2022/07/12 12:32:52;;;;;;;4.85;2.10;;;;;;;;;;4985555;28;20544;-63
2022/07/12 12:35:19;;;;;;;3.80;2.08;;;;;;;;;;4987611;28;20050;-63
2022/07/12 12:37:50;;;;;;;8.30;2.05;;;;;;;;;;4985456;28;20070;-63
2022/07/12 12:40:21;;;;;;;8.90;1.73;;;;;;;;;;4968261;28;20050;-63
2022/07/12 12:42:48;;;;;;;3.30;1.63;;;;;;;;;;4985515;28;20081;-63
2022/07/12 12:45:18;;;;;;;3.83;2.05;;;;;;;;;;4986239;28;20050;-63
2022/07/12 12:47:53;;;;;;;3.65;2.05;;;;;;;;;;4985133;28;20042;-63
2022/07/12 12:50:35;;;;;;;3.90;1.77;;;;;;;;;;4984493;28;20044;-63
2022/07/12 12:53:07;;;;;;;4.28;1.50;;;;;;;;;;4983530;28;20086;-63
2022/07/12 12:55:33;;;;;;;3.47;2.10;;;;;;;;;;4981337;28;20054;-63
2022/07/12 12:58:01;;;;;;;5.28;1.70;;;;;;;;;;4984130;28;20046;-63
2022/07/12 13:00:27;;;;;;;4.55;1.52;;;;;;;;;;4985730;28;20046;-63
2022/07/12 13:02:53;;;;;;;4.05;1.70;;;;;;;;;;4984937;28;20038;-63
2022/07/12 13:05:19;;;;;;;4.63;1.45;;;;;;;;;;4985748;28;20137;-63
2022/07/12 13:07:46;;;;;;;4.75;1.80;;;;;;;;;;4966935;28;20088;-63
2022/07/12 13:10:12;;;;;;;3.72;1.40;;;;;;;;;;4985256;28;20042;-63
2022/07/12 13:12:38;;;;;;;4.72;1.65;;;;;;;;;;4985573;28;20497;-63
2022/07/12 13:15:07;;;;;;;2.92;1.73;;;;;;;;;;4985235;28;20054;-63
2022/07/12 13:17:33;;;;;;;4.45;1.70;;;;;;;;;;4985426;28;20069;-63
2022/07/12 13:19:59;;;;;;;5.53;2.70;;;;;;;;;;4985284;28;20054;-63
2022/07/12 13:22:26;;;;;;;7.35;2.33;;;;;;;;;;4985076;28;20149;-63
2022/07/12 13:24:52;;;;;;;3.80;2.30;;;;;;;;;;4986502;28;20050;-63
2022/07/12 13:27:18;;;;;;;4.70;2.28;;;;;;;;;;4986058;28;20046;-62
2022/07/12 13:29:44;;;;;;;6.00;2.80;;;;;;;;;;4984775;28;20050;-63
2022/07/12 13:32:10;;;;;;;5.50;3.33;;;;;;;;;;4987261;28;20397;-63
2022/07/12 13:34:36;;;;;;;11.38;3.30;;;;;;;;;;4985385;28;20121;-63
2022/07/12 13:37:03;;;;;;;7.05;3.28;;;;;;;;;;4984447;28;20104;-63
2022/07/12 13:42:14;;;;;;;4.95;3.08;;;;;;;;;;4985796;28;20042;-62
2022/07/12 13:44:42;;;;;;;3.83;2.70;;;;;;;;;;4969301;28;20490;-63
2022/07/12 13:47:08;;;;;;;4.78;2.75;;;;;;;;;;4965105;28;20103;-63
2022/07/12 13:49:35;;;;;;;5.45;2.80;;;;;;;;;;4980567;28;20058;-62
2022/07/12 13:52:02;;;;;;;6.97;2.80;;;;;;;;;;4957402;28;20044;-62
2022/07/12 13:54:28;;;;;;;3.97;2.30;;;;;;;;;;4957836;28;22010;-62
2022/07/12 13:56:54;;;;;;;7.85;2.70;;;;;;;;;;4977229;28;20100;-62
2022/07/12 13:59:21;;;;;;;9.98;3.88;;;;;;;;;;4979074;28;20050;-62
2022/07/12 14:01:47;;;;;;;7.90;3.60;;;;;;;;;;4956905;28;20046;-62
2022/07/12 14:04:13;;;;;;;7.75;3.97;;;;;;;;;;4959247;28;20058;-62
2022/07/12 14:06:39;;;;;;;8.15;3.92;;;;;;;;;;4978434;28;20109;-62
2022/07/12 14:09:06;;;;;;;6.85;3.60;;;;;;;;;;4958347;28;20050;-62
2022/07/12 14:11:32;;;;;;;6.03;3.58;;;;;;;;;;4977735;28;20919;-62
2022/07/12 14:13:59;;;;;;;6.38;3.70;;;;;;;;;;4977970;28;20133;-63
2022/07/12 14:16:25;;;;;;;7.25;3.00;;;;;;;;;;4944181;28;20058;-62
2022/07/12 14:18:51;;;;;;;7.28;3.47;;;;;;;;;;4978820;28;20061;-62
2022/07/12 14:21:17;;;;;;;6.00;3.80;;;;;;;;;;4960716;28;20918;-62
2022/07/12 14:23:44;;;;;;;6.50;3.50;;;;;;;;;;4977100;28;20053;-62
2022/07/12 14:26:11;;;;;;;11.57;3.53;;;;;;;;;;4966349;28;20054;-62
2022/07/12 14:28:37;;;;;;;5.93;3.92;;;;;;;;;;4981981;28;20046;-61
2022/07/12 14:31:04;;;;;;;6.63;3.50;;;;;;;;;;4962517;28;20082;-62
2022/07/12 14:33:31;;;;;;;4.43;2.95;;;;;;;;;;4980823;28;20402;-63
2022/07/12 14:35:57;;;;;;;8.23;2.80;;;;;;;;;;4981963;28;20030;-63
2022/07/12 14:38:23;;;;;;;6.82;3.70;;;;;;;;;;4981335;28;20466;-63
2022/07/12 14:40:50;;;;;;;14.18;6.45;;;;;;;;;;4982137;28;20062;-62
2022/07/12 14:43:16;;;;;;;9.88;4.78;;;;;;;;;;4981294;28;20034;-63
2022/07/12 14:45:43;;;;;;;7.68;4.10;;;;;;;;;;4984549;28;20050;-62